South Gastonia, North Carolina
Current Conditions -  °F | °C
As of 9:54 PM on Thursday 18 Dec 2014 (Local Time) from KAKH Reporting Station
Overcast Overcast  
Wind Chill: 44°   Ceiling: 6000
Heat Index: 44°   Visibility: 10mi
Dew Point: 30°   Wind: 0mph
Humidity: 58%   Direction: NA
Pressure: 30.09"   Gusts: NA
Location:  35.2205°N, 81.2501°W
Report Text: KAKH 190254Z AUTO 00000KT 10SM OVC060 07/M01 A3009 RMK AO2 SLP192 T00671011 51004
Loading
Personal Weather Stations






























Interactive Weather Map New forecast layout! Learn more

10-Day Weather Forecast

Advertisements
Track Severe Weather on mobile